sensor_id;sensor_type;location;lat;lon;timestamp;pressure;altitude;pressure_sealevel;temperature;humidity
37200;BME280;23096;50.892;16.746;2023-02-14T00:00:53;101259.08;;;4.28;80.28
37200;BME280;23096;50.892;16.746;2023-02-14T00:03:18;101258.88;;;4.28;80.24
37200;BME280;23096;50.892;16.746;2023-02-14T00:05:44;101258.69;;;4.27;80.31
37200;BME280;23096;50.892;16.746;2023-02-14T00:08:09;101261.36;;;4.25;80.23
37200;BME280;23096;50.892;16.746;2023-02-14T00:10:35;101261.77;;;4.21;80.33
37200;BME280;23096;50.892;16.746;2023-02-14T00:13:00;101264.11;;;4.20;80.41
37200;BME280;23096;50.892;16.746;2023-02-14T00:15:25;101261.16;;;4.18;80.35
37200;BME280;23096;50.892;16.746;2023-02-14T00:17:52;101261.61;;;4.15;80.18
37200;BME280;23096;50.892;16.746;2023-02-14T00:20:19;101259.00;;;4.13;80.24
37200;BME280;23096;50.892;16.746;2023-02-14T00:22:44;101258.81;;;4.12;80.46
37200;BME280;23096;50.892;16.746;2023-02-14T00:25:10;101254.02;;;4.11;80.39
37200;BME280;23096;50.892;16.746;2023-02-14T00:27:35;101255.83;;;4.09;80.48
37200;BME280;23096;50.892;16.746;2023-02-14T00:30:01;101256.77;;;4.06;80.40
37200;BME280;23096;50.892;16.746;2023-02-14T00:32:30;101254.50;;;4.03;80.44
37200;BME280;23096;50.892;16.746;2023-02-14T00:34:56;101253.62;;;4.02;80.49
37200;BME280;23096;50.892;16.746;2023-02-14T00:37:21;101255.09;;;4.00;80.39
37200;BME280;23096;50.892;16.746;2023-02-14T00:39:47;101252.17;;;3.99;80.30
37200;BME280;23096;50.892;16.746;2023-02-14T00:42:13;101250.10;;;3.98;80.40
37200;BME280;23096;50.892;16.746;2023-02-14T00:44:39;101252.09;;;3.96;80.30
37200;BME280;23096;50.892;16.746;2023-02-14T00:47:04;101254.77;;;3.94;80.22
37200;BME280;23096;50.892;16.746;2023-02-14T00:49:30;101258.65;;;3.93;80.23
37200;BME280;23096;50.892;16.746;2023-02-14T00:51:57;101259.16;;;3.93;80.25
37200;BME280;23096;50.892;16.746;2023-02-14T00:54:23;101258.84;;;3.93;80.28
37200;BME280;23096;50.892;16.746;2023-02-14T00:56:49;101261.36;;;3.92;80.13
37200;BME280;23096;50.892;16.746;2023-02-14T00:59:14;101256.73;;;3.91;80.13
37200;BME280;23096;50.892;16.746;2023-02-14T01:01:40;101255.36;;;3.91;80.15
37200;BME280;23096;50.892;16.746;2023-02-14T01:04:07;101249.02;;;3.90;80.16
37200;BME280;23096;50.892;16.746;2023-02-14T01:06:33;101247.79;;;3.87;80.08
37200;BME280;23096;50.892;16.746;2023-02-14T01:08:58;101248.13;;;3.87;80.20
37200;BME280;23096;50.892;16.746;2023-02-14T01:11:24;101246.60;;;3.88;80.11
37200;BME280;23096;50.892;16.746;2023-02-14T01:13:53;101242.88;;;3.88;80.17
37200;BME280;23096;50.892;16.746;2023-02-14T01:16:19;101238.91;;;3.86;80.03
37200;BME280;23096;50.892;16.746;2023-02-14T01:18:46;101235.48;;;3.85;80.10
37200;BME280;23096;50.892;16.746;2023-02-14T01:23:40;101239.35;;;3.83;80.20
37200;BME280;23096;50.892;16.746;2023-02-14T01:26:06;101239.41;;;3.86;80.21
37200;BME280;23096;50.892;16.746;2023-02-14T01:28:31;101236.35;;;3.86;80.09
37200;BME280;23096;50.892;16.746;2023-02-14T01:30:57;101236.33;;;3.85;80.01
37200;BME280;23096;50.892;16.746;2023-02-14T01:33:29;101238.67;;;3.84;80.09
37200;BME280;23096;50.892;16.746;2023-02-14T01:35:54;101237.29;;;3.83;80.04
37200;BME280;23096;50.892;16.746;2023-02-14T01:38:19;101235.95;;;3.84;80.02
37200;BME280;23096;50.892;16.746;2023-02-14T01:40:45;101240.89;;;3.84;80.01
37200;BME280;23096;50.892;16.746;2023-02-14T01:43:13;101246.30;;;3.83;79.88
37200;BME280;23096;50.892;16.746;2023-02-14T01:45:39;101245.10;;;3.83;79.87
37200;BME280;23096;50.892;16.746;2023-02-14T01:48:04;101248.11;;;3.81;79.95
37200;BME280;23096;50.892;16.746;2023-02-14T01:50:32;101251.13;;;3.79;79.94
37200;BME280;23096;50.892;16.746;2023-02-14T01:55:25;101248.82;;;3.76;79.92
37200;BME280;23096;50.892;16.746;2023-02-14T01:57:54;101249.44;;;3.74;79.87
37200;BME280;23096;50.892;16.746;2023-02-14T02:00:21;101250.61;;;3.73;79.86
37200;BME280;23096;50.892;16.746;2023-02-14T02:03:05;101249.66;;;3.69;79.87
37200;BME280;23096;50.892;16.746;2023-02-14T02:05:31;101246.72;;;3.68;79.95
37200;BME280;23096;50.892;16.746;2023-02-14T02:07:58;101247.02;;;3.66;79.93
37200;BME280;23096;50.892;16.746;2023-02-14T02:10:26;101242.41;;;3.65;79.86
37200;BME280;23096;50.892;16.746;2023-02-14T02:12:51;101241.02;;;3.64;79.81
37200;BME280;23096;50.892;16.746;2023-02-14T02:15:17;101237.45;;;3.64;79.91
37200;BME280;23096;50.892;16.746;2023-02-14T02:18:04;101235.42;;;3.64;79.83
37200;BME280;23096;50.892;16.746;2023-02-14T02:26:05;101226.42;;;3.64;79.87
37200;BME280;23096;50.892;16.746;2023-02-14T02:49:12;101210.92;;;3.58;79.70
37200;BME280;23096;50.892;16.746;2023-02-14T02:51:49;101212.07;;;3.56;79.77
37200;BME280;23096;50.892;16.746;2023-02-14T02:54:38;101208.56;;;3.53;79.72
37200;BME280;23096;50.892;16.746;2023-02-14T02:57:08;101209.73;;;3.52;79.69
37200;BME280;23096;50.892;16.746;2023-02-14T02:59:37;101212.09;;;3.50;79.72
37200;BME280;23096;50.892;16.746;2023-02-14T03:02:18;101210.08;;;3.51;79.61
37200;BME280;23096;50.892;16.746;2023-02-14T03:04:46;101208.73;;;3.52;79.62
37200;BME280;23096;50.892;16.746;2023-02-14T03:09:59;101207.05;;;3.53;79.56
37200;BME280;23096;50.892;16.746;2023-02-14T03:15:04;101206.48;;;3.51;79.62
37200;BME280;23096;50.892;16.746;2023-02-14T03:17:38;101203.64;;;3.52;79.59
37200;BME280;23096;50.892;16.746;2023-02-14T03:20:15;101205.50;;;3.52;79.67
37200;BME280;23096;50.892;16.746;2023-02-14T03:22:53;101203.44;;;3.51;79.62
37200;BME280;23096;50.892;16.746;2023-02-14T03:25:27;101202.10;;;3.52;79.47
37200;BME280;23096;50.892;16.746;2023-02-14T03:28:16;101205.30;;;3.51;79.39
37200;BME280;23096;50.892;16.746;2023-02-14T03:36:07;101204.62;;;3.51;79.40
37200;BME280;23096;50.892;16.746;2023-02-14T03:39:38;101204.08;;;3.49;79.46
37200;BME280;23096;50.892;16.746;2023-02-14T03:41:31;101204.20;;;3.48;79.51
37200;BME280;23096;50.892;16.746;2023-02-14T03:44:03;101203.54;;;3.48;79.42
37200;BME280;23096;50.892;16.746;2023-02-14T03:46:46;101203.86;;;3.48;79.38
37200;BME280;23096;50.892;16.746;2023-02-14T03:49:15;101200.41;;;3.46;79.55
37200;BME280;23096;50.892;16.746;2023-02-14T03:51:43;101202.13;;;3.47;79.49
37200;BME280;23096;50.892;16.746;2023-02-14T03:54:09;101205.10;;;3.44;79.48
37200;BME280;23096;50.892;16.746;2023-02-14T03:56:41;101208.12;;;3.42;79.47
37200;BME280;23096;50.892;16.746;2023-02-14T03:59:15;101212.89;;;3.43;79.57
37200;BME280;23096;50.892;16.746;2023-02-14T04:02:03;101214.91;;;3.42;79.49
37200;BME280;23096;50.892;16.746;2023-02-14T04:04:27;101212.64;;;3.40;79.48
37200;BME280;23096;50.892;16.746;2023-02-14T04:06:52;101215.33;;;3.39;79.36
37200;BME280;23096;50.892;16.746;2023-02-14T04:09:18;101217.48;;;3.37;79.38
37200;BME280;23096;50.892;16.746;2023-02-14T04:11:43;101224.42;;;3.36;79.34
37200;BME280;23096;50.892;16.746;2023-02-14T04:14:12;101222.15;;;3.34;79.31
37200;BME280;23096;50.892;16.746;2023-02-14T04:16:38;101228.04;;;3.32;79.34
37200;BME280;23096;50.892;16.746;2023-02-14T04:19:26;101230.41;;;3.32;79.42
37200;BME280;23096;50.892;16.746;2023-02-14T04:21:52;101225.79;;;3.30;79.24
37200;BME280;23096;50.892;16.746;2023-02-14T04:24:17;101227.73;;;3.27;79.45
37200;BME280;23096;50.892;16.746;2023-02-14T04:26:43;101230.07;;;3.26;79.37
37200;BME280;23096;50.892;16.746;2023-02-14T04:29:21;101226.44;;;3.24;79.33
37200;BME280;23096;50.892;16.746;2023-02-14T04:31:47;101224.91;;;3.23;79.50
37200;BME280;23096;50.892;16.746;2023-02-14T04:34:12;101226.44;;;3.24;79.32
37200;BME280;23096;50.892;16.746;2023-02-14T04:36:38;101230.33;;;3.23;79.31
37200;BME280;23096;50.892;16.746;2023-02-14T04:39:03;101230.93;;;3.20;79.21
37200;BME280;23096;50.892;16.746;2023-02-14T04:41:29;101227.31;;;3.19;79.16
37200;BME280;23096;50.892;16.746;2023-02-14T04:43:54;101225.94;;;3.18;79.36
37200;BME280;23096;50.892;16.746;2023-02-14T04:46:20;101229.69;;;3.19;79.40
37200;BME280;23096;50.892;16.746;2023-02-14T04:48:45;101233.21;;;3.17;79.29
37200;BME280;23096;50.892;16.746;2023-02-14T04:51:10;101232.99;;;3.16;79.33
37200;BME280;23096;50.892;16.746;2023-02-14T04:53:39;101228.52;;;3.13;79.32
37200;BME280;23096;50.892;16.746;2023-02-14T04:56:05;101228.82;;;3.13;79.38
37200;BME280;23096;50.892;16.746;2023-02-14T04:58:30;101229.02;;;3.13;79.27
37200;BME280;23096;50.892;16.746;2023-02-14T05:00:56;101227.66;;;3.13;79.25
37200;BME280;23096;50.892;16.746;2023-02-14T05:03:21;101229.70;;;3.13;79.25
37200;BME280;23096;50.892;16.746;2023-02-14T05:05:46;101226.48;;;3.13;79.25
37200;BME280;23096;50.892;16.746;2023-02-14T05:08:12;101232.52;;;3.11;79.24
37200;BME280;23096;50.892;16.746;2023-02-14T05:10:38;101232.33;;;3.10;79.33
37200;BME280;23096;50.892;16.746;2023-02-14T05:13:04;101231.79;;;3.10;79.20
37200;BME280;23096;50.892;16.746;2023-02-14T05:15:29;101230.91;;;3.09;79.14
37200;BME280;23096;50.892;16.746;2023-02-14T05:17:54;101228.14;;;3.06;79.20
37200;BME280;23096;50.892;16.746;2023-02-14T05:20:20;101230.23;;;3.08;79.20
37200;BME280;23096;50.892;16.746;2023-02-14T05:22:45;101229.38;;;3.09;79.23
37200;BME280;23096;50.892;16.746;2023-02-14T05:25:11;101235.48;;;3.08;79.22
37200;BME280;23096;50.892;16.746;2023-02-14T05:27:36;101230.87;;;3.07;79.16
37200;BME280;23096;50.892;16.746;2023-02-14T05:30:01;101230.12;;;3.05;79.20
37200;BME280;23096;50.892;16.746;2023-02-14T05:32:27;101224.33;;;3.04;79.17
37200;BME280;23096;50.892;16.746;2023-02-14T05:34:52;101229.41;;;3.04;78.99
37200;BME280;23096;50.892;16.746;2023-02-14T05:37:17;101232.96;;;3.03;79.14
37200;BME280;23096;50.892;16.746;2023-02-14T05:39:43;101230.95;;;3.04;79.06
37200;BME280;23096;50.892;16.746;2023-02-14T05:42:08;101237.43;;;3.05;79.06
37200;BME280;23096;50.892;16.746;2023-02-14T05:44:34;101242.20;;;3.05;79.00
37200;BME280;23096;50.892;16.746;2023-02-14T05:46:59;101237.75;;;3.05;79.11
37200;BME280;23096;50.892;16.746;2023-02-14T05:49:24;101233.79;;;3.02;79.06
37200;BME280;23096;50.892;16.746;2023-02-14T05:51:50;101234.93;;;3.01;78.94
37200;BME280;23096;50.892;16.746;2023-02-14T05:54:15;101237.95;;;3.00;78.98
37200;BME280;23096;50.892;16.746;2023-02-14T05:56:41;101245.75;;;2.99;78.96
37200;BME280;23096;50.892;16.746;2023-02-14T05:59:06;101249.83;;;2.99;78.97
37200;BME280;23096;50.892;16.746;2023-02-14T06:01:31;101250.95;;;2.98;79.04
37200;BME280;23096;50.892;16.746;2023-02-14T06:03:57;101250.14;;;2.99;78.97
37200;BME280;23096;50.892;16.746;2023-02-14T06:06:22;101255.08;;;2.99;78.89
37200;BME280;23096;50.892;16.746;2023-02-14T06:08:47;101255.95;;;3.00;78.89
37200;BME280;23096;50.892;16.746;2023-02-14T06:11:13;101258.65;;;3.00;78.84
37200;BME280;23096;50.892;16.746;2023-02-14T06:13:38;101259.30;;;2.98;78.83
37200;BME280;23096;50.892;16.746;2023-02-14T06:16:05;101258.98;;;2.99;78.96
37200;BME280;23096;50.892;16.746;2023-02-14T06:18:31;101263.89;;;2.99;78.86
37200;BME280;23096;50.892;16.746;2023-02-14T06:20:56;101268.61;;;2.97;78.80
37200;BME280;23096;50.892;16.746;2023-02-14T06:23:22;101274.02;;;2.96;78.82
37200;BME280;23096;50.892;16.746;2023-02-14T06:25:47;101274.89;;;2.97;78.82
37200;BME280;23096;50.892;16.746;2023-02-14T06:28:12;101273.90;;;2.98;78.80
37200;BME280;23096;50.892;16.746;2023-02-14T06:30:38;101270.69;;;2.99;78.84
37200;BME280;23096;50.892;16.746;2023-02-14T06:33:03;101272.02;;;2.98;78.70
37200;BME280;23096;50.892;16.746;2023-02-14T06:35:28;101276.05;;;2.97;78.79
37200;BME280;23096;50.892;16.746;2023-02-14T06:37:54;101278.98;;;2.98;78.73
37200;BME280;23096;50.892;16.746;2023-02-14T06:40:19;101277.84;;;2.99;78.70
37200;BME280;23096;50.892;16.746;2023-02-14T06:42:45;101278.39;;;3.01;78.72
37200;BME280;23096;50.892;16.746;2023-02-14T06:45:10;101282.18;;;3.02;78.64
37200;BME280;23096;50.892;16.746;2023-02-14T06:47:36;101285.27;;;3.04;78.52
37200;BME280;23096;50.892;16.746;2023-02-14T06:50:02;101286.19;;;3.05;78.65
37200;BME280;23096;50.892;16.746;2023-02-14T06:52:29;101282.65;;;3.07;78.57
37200;BME280;23096;50.892;16.746;2023-02-14T06:54:55;101283.52;;;3.07;78.57
37200;BME280;23096;50.892;16.746;2023-02-14T06:57:20;101288.32;;;3.09;78.48
37200;BME280;23096;50.892;16.746;2023-02-14T06:59:46;101285.62;;;3.09;78.51
37200;BME280;23096;50.892;16.746;2023-02-14T07:02:11;101287.52;;;3.10;78.53
37200;BME280;23096;50.892;16.746;2023-02-14T07:04:36;101288.05;;;3.12;78.43
37200;BME280;23096;50.892;16.746;2023-02-14T07:07:03;101284.65;;;3.11;78.39
37200;BME280;23096;50.892;16.746;2023-02-14T07:09:28;101288.59;;;3.12;78.38
37200;BME280;23096;50.892;16.746;2023-02-14T07:11:54;101291.38;;;3.14;78.31
37200;BME280;23096;50.892;16.746;2023-02-14T07:14:19;101292.47;;;3.16;78.30
37200;BME280;23096;50.892;16.746;2023-02-14T07:16:45;101293.75;;;3.19;78.36
37200;BME280;23096;50.892;16.746;2023-02-14T07:19:10;101295.69;;;3.22;78.37
37200;BME280;23096;50.892;16.746;2023-02-14T07:21:35;101301.66;;;3.23;78.22
37200;BME280;23096;50.892;16.746;2023-02-14T07:24:01;101300.36;;;3.25;78.22
37200;BME280;23096;50.892;16.746;2023-02-14T07:26:26;101301.09;;;3.27;78.22
37200;BME280;23096;50.892;16.746;2023-02-14T07:28:52;101297.70;;;3.27;78.03
37200;BME280;23096;50.892;16.746;2023-02-14T07:31:17;101300.02;;;3.31;78.18
37200;BME280;23096;50.892;16.746;2023-02-14T07:33:44;101303.67;;;3.33;78.07
37200;BME280;23096;50.892;16.746;2023-02-14T07:36:09;101304.94;;;3.36;78.06
37200;BME280;23096;50.892;16.746;2023-02-14T07:38:35;101305.52;;;3.38;77.96
37200;BME280;23096;50.892;16.746;2023-02-14T07:41:00;101300.42;;;3.38;77.96
37200;BME280;23096;50.892;16.746;2023-02-14T07:43:26;101301.07;;;3.37;77.98
37200;BME280;23096;50.892;16.746;2023-02-14T07:45:51;101303.61;;;3.37;77.88
37200;BME280;23096;50.892;16.746;2023-02-14T07:48:17;101306.29;;;3.35;77.86
37200;BME280;23096;50.892;16.746;2023-02-14T07:50:43;101303.59;;;3.36;77.90
37200;BME280;23096;50.892;16.746;2023-02-14T07:53:08;101296.16;;;3.38;77.84
37200;BME280;23096;50.892;16.746;2023-02-14T07:55:33;101290.80;;;3.40;77.68
37200;BME280;23096;50.892;16.746;2023-02-14T07:57:59;101294.61;;;3.42;77.65
37200;BME280;23096;50.892;16.746;2023-02-14T08:00:25;101292.81;;;3.44;77.73
37200;BME280;23096;50.892;16.746;2023-02-14T08:02:50;101299.20;;;3.48;77.77
37200;BME280;23096;50.892;16.746;2023-02-14T08:05:16;101296.20;;;3.50;77.64
37200;BME280;23096;50.892;16.746;2023-02-14T08:07:41;101297.59;;;3.52;77.71
37200;BME280;23096;50.892;16.746;2023-02-14T08:10:08;101297.58;;;3.51;77.47
37200;BME280;23096;50.892;16.746;2023-02-14T08:12:33;101302.54;;;3.52;77.50
37200;BME280;23096;50.892;16.746;2023-02-14T08:15:17;101302.04;;;3.52;77.48
37200;BME280;23096;50.892;16.746;2023-02-14T08:18:01;101300.02;;;3.53;77.43
37200;BME280;23096;50.892;16.746;2023-02-14T08:20:27;101296.14;;;3.54;77.39
37200;BME280;23096;50.892;16.746;2023-02-14T08:22:52;101300.95;;;3.56;77.38
37200;BME280;23096;50.892;16.746;2023-02-14T08:25:17;101303.59;;;3.59;77.28
37200;BME280;23096;50.892;16.746;2023-02-14T08:27:44;101299.13;;;3.63;77.34
37200;BME280;23096;50.892;16.746;2023-02-14T08:30:09;101297.23;;;3.62;77.26
37200;BME280;23096;50.892;16.746;2023-02-14T08:32:35;101297.94;;;3.63;77.18
37200;BME280;23096;50.892;16.746;2023-02-14T08:35:00;101296.83;;;3.66;77.26
37200;BME280;23096;50.892;16.746;2023-02-14T08:37:25;101302.85;;;3.68;77.15
37200;BME280;23096;50.892;16.746;2023-02-14T08:39:51;101302.01;;;3.69;77.08
37200;BME280;23096;50.892;16.746;2023-02-14T08:42:16;101306.14;;;3.71;77.08
37200;BME280;23096;50.892;16.746;2023-02-14T08:44:42;101304.70;;;3.74;77.08
37200;BME280;23096;50.892;16.746;2023-02-14T08:47:07;101307.30;;;3.76;77.17
37200;BME280;23096;50.892;16.746;2023-02-14T08:49:32;101310.23;;;3.77;77.05
37200;BME280;23096;50.892;16.746;2023-02-14T08:51:58;101307.75;;;3.79;77.07
37200;BME280;23096;50.892;16.746;2023-02-14T08:54:23;101310.14;;;3.80;76.97
37200;BME280;23096;50.892;16.746;2023-02-14T08:56:49;101310.78;;;3.78;77.05
37200;BME280;23096;50.892;16.746;2023-02-14T08:59:14;101312.34;;;3.79;76.98
37200;BME280;23096;50.892;16.746;2023-02-14T09:01:40;101312.19;;;3.80;76.97
37200;BME280;23096;50.892;16.746;2023-02-14T09:04:06;101314.43;;;3.81;77.01
37200;BME280;23096;50.892;16.746;2023-02-14T09:06:31;101320.61;;;3.83;76.96
37200;BME280;23096;50.892;16.746;2023-02-14T09:08:57;101316.55;;;3.84;76.97
37200;BME280;23096;50.892;16.746;2023-02-14T09:14:24;101323.80;;;3.88;76.81
37200;BME280;23096;50.892;16.746;2023-02-14T09:16:49;101329.24;;;3.88;76.88
37200;BME280;23096;50.892;16.746;2023-02-14T09:19:14;101325.88;;;3.89;76.78
37200;BME280;23096;50.892;16.746;2023-02-14T09:21:40;101326.42;;;3.91;76.73
37200;BME280;23096;50.892;16.746;2023-02-14T09:24:05;101331.38;;;3.91;76.72
37200;BME280;23096;50.892;16.746;2023-02-14T09:26:31;101335.00;;;3.93;76.64
37200;BME280;23096;50.892;16.746;2023-02-14T09:28:56;101338.11;;;3.94;76.60
37200;BME280;23096;50.892;16.746;2023-02-14T09:31:23;101332.25;;;3.92;76.71
37200;BME280;23096;50.892;16.746;2023-02-14T09:33:49;101337.52;;;3.92;76.59
37200;BME280;23096;50.892;16.746;2023-02-14T09:36:33;101337.83;;;3.91;76.61
37200;BME280;23096;50.892;16.746;2023-02-14T09:38:59;101336.51;;;3.92;76.61
37200;BME280;23096;50.892;16.746;2023-02-14T09:43:59;101333.27;;;3.92;76.47
37200;BME280;23096;50.892;16.746;2023-02-14T09:46:26;101340.45;;;3.93;76.53
37200;BME280;23096;50.892;16.746;2023-02-14T09:48:52;101340.19;;;3.96;76.49
37200;BME280;23096;50.892;16.746;2023-02-14T09:51:20;101337.88;;;3.98;76.41
37200;BME280;23096;50.892;16.746;2023-02-14T09:54:05;101336.89;;;4.00;76.41
37200;BME280;23096;50.892;16.746;2023-02-14T10:10:23;101333.70;;;4.07;76.16
37200;BME280;23096;50.892;16.746;2023-02-14T10:12:54;101333.73;;;4.08;76.12
37200;BME280;23096;50.892;16.746;2023-02-14T10:15:22;101334.59;;;4.09;76.03
37200;BME280;23096;50.892;16.746;2023-02-14T10:17:49;101329.19;;;4.11;76.07
37200;BME280;23096;50.892;16.746;2023-02-14T10:23:03;101332.77;;;4.16;75.95
37200;BME280;23096;50.892;16.746;2023-02-14T10:26:03;101331.61;;;4.18;75.79
37200;BME280;23096;50.892;16.746;2023-02-14T10:28:23;101330.80;;;4.19;75.84
37200;BME280;23096;50.892;16.746;2023-02-14T10:33:34;101329.32;;;4.21;75.67
37200;BME280;23096;50.892;16.746;2023-02-14T10:36:03;101326.38;;;4.19;75.58
37200;BME280;23096;50.892;16.746;2023-02-14T10:38:50;101320.27;;;4.20;75.53
37200;BME280;23096;50.892;16.746;2023-02-14T10:41:24;101319.62;;;4.21;75.53
37200;BME280;23096;50.892;16.746;2023-02-14T10:44:11;101315.94;;;4.23;75.58
37200;BME280;23096;50.892;16.746;2023-02-14T10:46:58;101313.48;;;4.27;75.46
37200;BME280;23096;50.892;16.746;2023-02-14T10:49:32;101311.14;;;4.28;75.51
37200;BME280;23096;50.892;16.746;2023-02-14T10:54:35;101317.85;;;4.31;75.36
37200;BME280;23096;50.892;16.746;2023-02-14T10:57:04;101317.03;;;4.32;75.32
37200;BME280;23096;50.892;16.746;2023-02-14T11:02:10;101310.27;;;4.34;75.28
37200;BME280;23096;50.892;16.746;2023-02-14T11:04:37;101311.46;;;4.34;75.26
37200;BME280;23096;50.892;16.746;2023-02-14T11:07:03;101303.34;;;4.36;75.10
37200;BME280;23096;50.892;16.746;2023-02-14T11:09:29;101298.95;;;4.37;75.10
37200;BME280;23096;50.892;16.746;2023-02-14T11:11:55;101297.56;;;4.36;74.92
37200;BME280;23096;50.892;16.746;2023-02-14T11:14:28;101296.02;;;4.35;74.96
37200;BME280;23096;50.892;16.746;2023-02-14T11:16:54;101295.14;;;4.35;74.81
37200;BME280;23096;50.892;16.746;2023-02-14T11:19:22;101286.31;;;4.35;74.76
37200;BME280;23096;50.892;16.746;2023-02-14T11:21:48;101282.59;;;4.36;74.72
37200;BME280;23096;50.892;16.746;2023-02-14T11:24:27;101283.34;;;4.39;74.82
37200;BME280;23096;50.892;16.746;2023-02-14T11:27:36;101282.07;;;4.43;74.80
37200;BME280;23096;50.892;16.746;2023-02-14T11:34:40;101275.23;;;4.55;74.74
37200;BME280;23096;50.892;16.746;2023-02-14T11:37:16;101274.52;;;4.60;74.71
37200;BME280;23096;50.892;16.746;2023-02-14T11:39:42;101272.80;;;4.60;74.58
37200;BME280;23096;50.892;16.746;2023-02-14T11:42:08;101275.70;;;4.60;74.48
37200;BME280;23096;50.892;16.746;2023-02-14T11:44:36;101274.22;;;4.56;74.45
37200;BME280;23096;50.892;16.746;2023-02-14T11:47:19;101271.73;;;4.51;74.45
37200;BME280;23096;50.892;16.746;2023-02-14T11:49:54;101270.52;;;4.51;74.48
37200;BME280;23096;50.892;16.746;2023-02-14T11:52:20;101264.29;;;4.53;74.42
37200;BME280;23096;50.892;16.746;2023-02-14T11:54:50;101258.23;;;4.56;74.30
37200;BME280;23096;50.892;16.746;2023-02-14T11:57:26;101256.27;;;4.59;74.41
37200;BME280;23096;50.892;16.746;2023-02-14T11:59:56;101256.52;;;4.63;74.38
37200;BME280;23096;50.892;16.746;2023-02-14T12:04:51;101252.24;;;4.61;74.24
37200;BME280;23096;50.892;16.746;2023-02-14T12:07:20;101251.03;;;4.60;74.20
37200;BME280;23096;50.892;16.746;2023-02-14T12:09:47;101249.94;;;4.57;74.15
37200;BME280;23096;50.892;16.746;2023-02-14T12:12:15;101248.23;;;4.50;74.04
37200;BME280;23096;50.892;16.746;2023-02-14T12:14:40;101247.42;;;4.46;74.06
37200;BME280;23096;50.892;16.746;2023-02-14T12:19:42;101243.71;;;4.40;73.91
37200;BME280;23096;50.892;16.746;2023-02-14T12:22:31;101246.79;;;4.40;73.99
37200;BME280;23096;50.892;16.746;2023-02-14T12:24:59;101239.83;;;4.41;73.85
37200;BME280;23096;50.892;16.746;2023-02-14T12:27:27;101235.90;;;4.41;73.81
37200;BME280;23096;50.892;16.746;2023-02-14T12:30:05;101234.09;;;4.44;73.81
37200;BME280;23096;50.892;16.746;2023-02-14T12:32:45;101231.59;;;4.46;73.78
37200;BME280;23096;50.892;16.746;2023-02-14T12:35:15;101230.73;;;4.45;73.69
37200;BME280;23096;50.892;16.746;2023-02-14T12:40:20;101225.91;;;4.43;73.59
37200;BME280;23096;50.892;16.746;2023-02-14T12:45:42;101230.67;;;4.35;73.52
37200;BME280;23096;50.892;16.746;2023-02-14T12:53:23;101229.34;;;4.30;73.27
37200;BME280;23096;50.892;16.746;2023-02-14T13:03:36;101219.91;;;4.34;73.10
37200;BME280;23096;50.892;16.746;2023-02-14T13:11:45;101212.13;;;4.43;73.14
37200;BME280;23096;50.892;16.746;2023-02-14T13:22:13;101206.27;;;4.47;72.84
37200;BME280;23096;50.892;16.746;2023-02-14T13:24:41;101204.02;;;4.45;72.75
37200;BME280;23096;50.892;16.746;2023-02-14T13:27:10;101204.37;;;4.46;72.74
37200;BME280;23096;50.892;16.746;2023-02-14T13:29:47;101204.23;;;4.47;72.76
37200;BME280;23096;50.892;16.746;2023-02-14T13:32:14;101203.69;;;4.46;72.55
37200;BME280;23096;50.892;16.746;2023-02-14T13:34:42;101200.48;;;4.48;72.44
37200;BME280;23096;50.892;16.746;2023-02-14T13:37:09;101203.79;;;4.50;72.62
37200;BME280;23096;50.892;16.746;2023-02-14T13:39:37;101204.73;;;4.54;72.60
37200;BME280;23096;50.892;16.746;2023-02-14T13:42:04;101205.60;;;4.54;72.52
37200;BME280;23096;50.892;16.746;2023-02-14T13:44:46;101203.29;;;4.51;72.35
37200;BME280;23096;50.892;16.746;2023-02-14T13:47:24;101208.15;;;4.47;72.43
37200;BME280;23096;50.892;16.746;2023-02-14T13:49:58;101206.09;;;4.46;72.38
37200;BME280;23096;50.892;16.746;2023-02-14T13:55:05;101199.45;;;4.47;72.28
37200;BME280;23096;50.892;16.746;2023-02-14T13:57:32;101197.16;;;4.51;72.32
37200;BME280;23096;50.892;16.746;2023-02-14T14:02:53;101193.56;;;4.56;72.37
37200;BME280;23096;50.892;16.746;2023-02-14T14:18:44;101199.56;;;4.66;72.23
37200;BME280;23096;50.892;16.746;2023-02-14T14:21:28;101204.52;;;4.67;72.22
37200;BME280;23096;50.892;16.746;2023-02-14T14:26:32;101202.92;;;4.71;72.25
37200;BME280;23096;50.892;16.746;2023-02-14T14:28:59;101203.95;;;4.71;72.19
37200;BME280;23096;50.892;16.746;2023-02-14T14:31:25;101201.27;;;4.66;72.02
37200;BME280;23096;50.892;16.746;2023-02-14T14:33:58;101202.34;;;4.61;71.96
37200;BME280;23096;50.892;16.746;2023-02-14T14:36:24;101203.09;;;4.56;72.05
37200;BME280;23096;50.892;16.746;2023-02-14T14:38:50;101199.86;;;4.56;72.04
37200;BME280;23096;50.892;16.746;2023-02-14T14:41:17;101198.11;;;4.54;71.94
37200;BME280;23096;50.892;16.746;2023-02-14T14:43:43;101191.61;;;4.53;71.95
37200;BME280;23096;50.892;16.746;2023-02-14T14:46:12;101189.27;;;4.48;71.91
37200;BME280;23096;50.892;16.746;2023-02-14T14:48:48;101188.67;;;4.45;71.85
37200;BME280;23096;50.892;16.746;2023-02-14T14:51:16;101189.46;;;4.42;71.81
37200;BME280;23096;50.892;16.746;2023-02-14T14:53:46;101188.55;;;4.38;71.84
37200;BME280;23096;50.892;16.746;2023-02-14T14:56:21;101183.85;;;4.35;71.79
37200;BME280;23096;50.892;16.746;2023-02-14T14:58:47;101181.58;;;4.33;71.75
37200;BME280;23096;50.892;16.746;2023-02-14T15:01:26;101184.85;;;4.34;71.72
37200;BME280;23096;50.892;16.746;2023-02-14T15:03:51;101183.10;;;4.32;71.70
37200;BME280;23096;50.892;16.746;2023-02-14T15:06:20;101182.81;;;4.33;71.65
37200;BME280;23096;50.892;16.746;2023-02-14T15:08:47;101178.20;;;4.33;71.71
37200;BME280;23096;50.892;16.746;2023-02-14T15:11:25;101179.58;;;4.34;71.72